EZY40VG EGKK-LBSF
Flight info
| Callsign | EZY40VG |
|---|---|
| Flight time | 2h 42m |
| Altitude | 37000 |
| Route | ODVIK2Z ODVIK Y311 DVR UL9 KONAN DCT KOK UL607 FERDI DCT REMBA DCT SPI DCT ULNOK DCT VIBOM DCT NOMBO/N0448F370 DCT RIDAR DCT LATLO DCT OBEDI DCT CEPRA DCT PODET DCT MOSAV DCT NISVA NISVA5D |
| Aircraft | A320/M-SDE3FGHIJ5LRWY/LB1 |
Departure
| Time | 2026-05-04 17:13 |
|---|---|
| Airport | London Gatwick Airport (EGKK) |
Arrival
| Time | 2026-05-04 19:55 |
|---|---|
| Airport | Sofia Airport (LBSF) |
| Time | Latitude | Longitude | Altitude | Speed | Heading |
|---|---|---|---|---|---|
| 2026-05-04 16:24 | 51.15904 | -0.17224 | 205 ft | 0 kts | 348° |
| 2026-05-04 16:54 | 51.15903 | -0.17224 | 204 ft | 2 kts | 348° |
| 2026-05-04 16:55 | 51.15836 | -0.17201 | 214 ft | 2 kts | 348° |
| 2026-05-04 16:55 | 51.15806 | -0.17174 | 207 ft | 3 kts | 290° |
| 2026-05-04 16:56 | 51.15803 | -0.17148 | 210 ft | 0 kts | 260° |
| 2026-05-04 16:58 | 51.15803 | -0.17149 | 210 ft | 0 kts | 260° |
| 2026-05-04 16:59 | 51.15801 | -0.17186 | 211 ft | 4 kts | 264° |
| 2026-05-04 17:00 | 51.15770 | -0.17421 | 207 ft | 6 kts | 259° |
| 2026-05-04 17:00 | 51.15710 | -0.17491 | 210 ft | 4 kts | 169° |
| 2026-05-04 17:01 | 51.15702 | -0.17488 | 204 ft | 0 kts | 169° |
| 2026-05-04 17:01 | 51.15674 | -0.17479 | 207 ft | 7 kts | 168° |
| 2026-05-04 17:02 | 51.15512 | -0.17422 | 211 ft | 12 kts | 167° |
| 2026-05-04 17:02 | 51.15369 | -0.17371 | 208 ft | 9 kts | 166° |
| 2026-05-04 17:03 | 51.15317 | -0.17368 | 204 ft | 7 kts | 201° |
| 2026-05-04 17:03 | 51.15297 | -0.17423 | 206 ft | 5 kts | 257° |
| 2026-05-04 17:03 | 51.15276 | -0.17594 | 207 ft | 11 kts | 257° |
| 2026-05-04 17:04 | 51.15242 | -0.17842 | 213 ft | 14 kts | 257° |
| 2026-05-04 17:04 | 51.15194 | -0.18190 | 207 ft | 15 kts | 258° |
| 2026-05-04 17:05 | 51.15156 | -0.18490 | 211 ft | 12 kts | 258° |
| 2026-05-04 17:05 | 51.15107 | -0.18861 | 209 ft | 20 kts | 258° |
| 2026-05-04 17:06 | 51.15056 | -0.19238 | 213 ft | 15 kts | 258° |
| 2026-05-04 17:06 | 51.15034 | -0.19397 | 205 ft | 15 kts | 257° |
| 2026-05-04 17:07 | 51.14988 | -0.19722 | 205 ft | 18 kts | 257° |
| 2026-05-04 17:07 | 51.14970 | -0.19858 | 210 ft | 20 kts | 258° |
| 2026-05-04 17:07 | 51.14933 | -0.20135 | 204 ft | 18 kts | 258° |
| 2026-05-04 17:07 | 51.14907 | -0.20318 | 204 ft | 16 kts | 257° |
| 2026-05-04 17:08 | 51.14883 | -0.20488 | 209 ft | 16 kts | 257° |
| 2026-05-04 17:08 | 51.14836 | -0.20836 | 208 ft | 15 kts | 258° |
| 2026-05-04 17:08 | 51.14816 | -0.20984 | 204 ft | 13 kts | 257° |
| 2026-05-04 17:09 | 51.14798 | -0.21102 | 215 ft | 9 kts | 257° |
| 2026-05-04 17:09 | 51.14779 | -0.21186 | 209 ft | 8 kts | 252° |
| 2026-05-04 17:09 | 51.14767 | -0.21273 | 208 ft | 8 kts | 258° |
| 2026-05-04 17:10 | 51.14730 | -0.21396 | 211 ft | 5 kts | 201° |
| 2026-05-04 17:10 | 51.14632 | -0.21329 | 207 ft | 5 kts | 160° |
| 2026-05-04 17:11 | 51.14596 | -0.21315 | 212 ft | 7 kts | 166° |
| 2026-05-04 17:11 | 51.14549 | -0.21280 | 211 ft | 7 kts | 139° |
| 2026-05-04 17:11 | 51.14518 | -0.21144 | 203 ft | 6 kts | 79° |
| 2026-05-04 17:12 | 51.14528 | -0.21072 | 209 ft | 12 kts | 77° |
| 2026-05-04 17:12 | 51.14767 | -0.19340 | 205 ft | 138 kts | 77° |
| 2026-05-04 17:13 | 51.15500 | -0.14125 | 1771 ft | 174 kts | 78° |
| 2026-05-04 17:14 | 51.16327 | -0.08160 | 3392 ft | 201 kts | 77° |
| 2026-05-04 17:14 | 51.16646 | -0.05869 | 3668 ft | 221 kts | 77° |
| 2026-05-04 17:14 | 51.16937 | -0.00563 | 4504 ft | 259 kts | 92° |
| 2026-05-04 17:15 | 51.16873 | 0.02385 | 5114 ft | 274 kts | 94° |
| 2026-05-04 17:15 | 51.16673 | 0.08578 | 5914 ft | 281 kts | 93° |
| 2026-05-04 17:16 | 51.16584 | 0.14785 | 5931 ft | 280 kts | 92° |
| 2026-05-04 17:16 | 51.16525 | 0.24122 | 7201 ft | 284 kts | 90° |
| 2026-05-04 17:17 | 51.16541 | 0.27293 | 8013 ft | 287 kts | 91° |
| 2026-05-04 17:17 | 51.16582 | 0.36993 | 10401 ft | 298 kts | 91° |
| 2026-05-04 17:18 | 51.16587 | 0.40367 | 10840 ft | 315 kts | 91° |
| 2026-05-04 17:18 | 51.16585 | 0.47843 | 11256 ft | 358 kts | 91° |
| 2026-05-04 17:19 | 51.16591 | 0.55944 | 12461 ft | 370 kts | 91° |
| 2026-05-04 17:19 | 51.16592 | 0.62869 | 13595 ft | 377 kts | 91° |
| 2026-05-04 17:20 | 51.16577 | 0.71249 | 14792 ft | 384 kts | 92° |
| 2026-05-04 17:20 | 51.16556 | 0.79841 | 15975 ft | 391 kts | 92° |
| 2026-05-04 17:20 | 51.16541 | 0.84196 | 16549 ft | 394 kts | 92° |
| 2026-05-04 17:21 | 51.16506 | 0.92996 | 17680 ft | 401 kts | 92° |
| 2026-05-04 17:21 | 51.16466 | 1.01948 | 18707 ft | 407 kts | 92° |
| 2026-05-04 17:22 | 51.16446 | 1.06472 | 19170 ft | 410 kts | 92° |
| 2026-05-04 17:22 | 51.16425 | 1.11035 | 19655 ft | 413 kts | 92° |
| 2026-05-04 17:23 | 51.16344 | 1.24891 | 21044 ft | 421 kts | 93° |
| 2026-05-04 17:23 | 51.16312 | 1.29563 | 21495 ft | 424 kts | 93° |
| 2026-05-04 17:23 | 51.16200 | 1.38967 | 22363 ft | 429 kts | 95° |
| 2026-05-04 17:24 | 51.16022 | 1.43725 | 22801 ft | 431 kts | 97° |
| 2026-05-04 17:24 | 51.15225 | 1.58126 | 23960 ft | 438 kts | 98° |
| 2026-05-04 17:25 | 51.14956 | 1.62980 | 24301 ft | 441 kts | 98° |
| 2026-05-04 17:25 | 51.14454 | 1.72756 | 24991 ft | 445 kts | 97° |
| 2026-05-04 17:26 | 51.13971 | 1.82557 | 25665 ft | 449 kts | 97° |
| 2026-05-04 17:26 | 51.13213 | 1.97503 | 26669 ft | 454 kts | 98° |
| 2026-05-04 17:27 | 51.12681 | 2.07548 | 27304 ft | 457 kts | 98° |
| 2026-05-04 17:27 | 51.12134 | 2.17679 | 27901 ft | 461 kts | 98° |
| 2026-05-04 17:28 | 51.11581 | 2.27872 | 28489 ft | 464 kts | 98° |
| 2026-05-04 17:29 | 51.10740 | 2.43243 | 29549 ft | 464 kts | 99° |
| 2026-05-04 17:29 | 51.09867 | 2.58494 | 30652 ft | 460 kts | 99° |
| 2026-05-04 17:30 | 51.08003 | 2.73323 | 31518 ft | 455 kts | 110° |
| 2026-05-04 17:31 | 51.06245 | 2.82991 | 32103 ft | 455 kts | 110° |
| 2026-05-04 17:31 | 51.03615 | 2.97472 | 32972 ft | 455 kts | 110° |
| 2026-05-04 17:32 | 51.01839 | 3.07133 | 33556 ft | 455 kts | 110° |
| 2026-05-04 17:33 | 50.99156 | 3.21604 | 34343 ft | 456 kts | 110° |
| 2026-05-04 17:33 | 50.98260 | 3.26436 | 34595 ft | 455 kts | 110° |
| 2026-05-04 17:34 | 50.95563 | 3.40907 | 34976 ft | 457 kts | 110° |
| 2026-05-04 17:34 | 50.94656 | 3.45737 | 34972 ft | 458 kts | 111° |
| 2026-05-04 17:35 | 50.90100 | 3.69824 | 34964 ft | 457 kts | 111° |
| 2026-05-04 17:36 | 50.88269 | 3.79470 | 34959 ft | 457 kts | 111° |
| 2026-05-04 17:36 | 50.86422 | 3.89095 | 34961 ft | 456 kts | 111° |
| 2026-05-04 17:37 | 50.84570 | 3.98697 | 34958 ft | 456 kts | 111° |
| 2026-05-04 17:37 | 50.82709 | 4.08294 | 34958 ft | 456 kts | 111° |
| 2026-05-04 17:38 | 50.80842 | 4.17880 | 34958 ft | 456 kts | 112° |
| 2026-05-04 17:38 | 50.78961 | 4.27443 | 34956 ft | 456 kts | 112° |
| 2026-05-04 17:39 | 50.76135 | 4.41793 | 34956 ft | 455 kts | 112° |
| 2026-05-04 17:39 | 50.74252 | 4.51338 | 34956 ft | 456 kts | 112° |
| 2026-05-04 17:40 | 50.72361 | 4.60890 | 34957 ft | 455 kts | 112° |
| 2026-05-04 17:40 | 50.70461 | 4.70419 | 34970 ft | 455 kts | 112° |
| 2026-05-04 17:41 | 50.68562 | 4.79850 | 34982 ft | 454 kts | 112° |
| 2026-05-04 17:41 | 50.66642 | 4.89324 | 34982 ft | 453 kts | 112° |
| 2026-05-04 17:42 | 50.64721 | 4.98772 | 34980 ft | 453 kts | 112° |
| 2026-05-04 17:42 | 50.62783 | 5.08216 | 34971 ft | 453 kts | 113° |
| 2026-05-04 17:43 | 50.60838 | 5.17632 | 34966 ft | 452 kts | 113° |
| 2026-05-04 17:43 | 50.58881 | 5.27051 | 34959 ft | 452 kts | 113° |
| 2026-05-04 17:44 | 50.56914 | 5.36468 | 34955 ft | 453 kts | 113° |
| 2026-05-04 17:44 | 50.54944 | 5.45873 | 34955 ft | 453 kts | 113° |
| 2026-05-04 17:45 | 50.52970 | 5.55282 | 34958 ft | 453 kts | 113° |
| 2026-05-04 17:45 | 50.50982 | 5.64676 | 34961 ft | 453 kts | 114° |
| 2026-05-04 17:46 | 50.48926 | 5.73945 | 34963 ft | 452 kts | 115° |
| 2026-05-04 17:46 | 50.46808 | 5.83242 | 34966 ft | 452 kts | 115° |
| 2026-05-04 17:47 | 50.44681 | 5.92559 | 35169 ft | 454 kts | 115° |
| 2026-05-04 17:47 | 50.43625 | 5.97228 | 35401 ft | 454 kts | 115° |
| 2026-05-04 17:47 | 50.42570 | 6.01890 | 35624 ft | 454 kts | 115° |
| 2026-05-04 17:48 | 50.41510 | 6.06556 | 35842 ft | 454 kts | 115° |
| 2026-05-04 17:48 | 50.40446 | 6.11225 | 36035 ft | 454 kts | 114° |
| 2026-05-04 17:48 | 50.39743 | 6.14310 | 36168 ft | 454 kts | 114° |
| 2026-05-04 17:48 | 50.38400 | 6.20192 | 36407 ft | 454 kts | 114° |
| 2026-05-04 17:49 | 50.37333 | 6.24848 | 36618 ft | 454 kts | 114° |
| 2026-05-04 17:49 | 50.36262 | 6.29506 | 36809 ft | 454 kts | 114° |
| 2026-05-04 17:49 | 50.35188 | 6.34166 | 36957 ft | 455 kts | 114° |
| 2026-05-04 17:49 | 50.34113 | 6.38824 | 36977 ft | 455 kts | 114° |
| 2026-05-04 17:50 | 50.31955 | 6.48141 | 36980 ft | 455 kts | 114° |
| 2026-05-04 17:50 | 50.29801 | 6.57383 | 36988 ft | 455 kts | 114° |
| 2026-05-04 17:51 | 50.27624 | 6.66679 | 36989 ft | 455 kts | 114° |
| 2026-05-04 17:51 | 50.25444 | 6.75964 | 36991 ft | 455 kts | 114° |
| 2026-05-04 17:52 | 50.23266 | 6.85236 | 36987 ft | 455 kts | 115° |
| 2026-05-04 17:52 | 50.21072 | 6.94512 | 36994 ft | 454 kts | 115° |
| 2026-05-04 17:53 | 50.18874 | 7.03751 | 36995 ft | 454 kts | 115° |
| 2026-05-04 17:53 | 50.16679 | 7.12938 | 36999 ft | 454 kts | 115° |
| 2026-05-04 17:54 | 50.14466 | 7.22170 | 36994 ft | 454 kts | 115° |
| 2026-05-04 17:54 | 50.12246 | 7.31386 | 36992 ft | 454 kts | 115° |
| 2026-05-04 17:55 | 50.10018 | 7.40578 | 36992 ft | 454 kts | 115° |
| 2026-05-04 17:55 | 50.07784 | 7.49770 | 36990 ft | 454 kts | 115° |
| 2026-05-04 17:56 | 50.05551 | 7.58950 | 36992 ft | 454 kts | 115° |
| 2026-05-04 17:56 | 50.03310 | 7.68127 | 36989 ft | 454 kts | 115° |
| 2026-05-04 17:57 | 50.01050 | 7.77288 | 36988 ft | 454 kts | 115° |
| 2026-05-04 17:57 | 49.98782 | 7.86451 | 36976 ft | 454 kts | 115° |
| 2026-05-04 17:58 | 49.96529 | 7.95543 | 36966 ft | 454 kts | 115° |
| 2026-05-04 17:58 | 49.94247 | 8.04700 | 36957 ft | 454 kts | 115° |
| 2026-05-04 17:59 | 49.91962 | 8.13872 | 36956 ft | 455 kts | 115° |
| 2026-05-04 18:00 | 49.88514 | 8.27601 | 36950 ft | 455 kts | 115° |
| 2026-05-04 18:00 | 49.86206 | 8.36744 | 36953 ft | 456 kts | 116° |
| 2026-05-04 18:01 | 49.83177 | 8.45223 | 36963 ft | 446 kts | 133° |
| 2026-05-04 18:01 | 49.79310 | 8.52717 | 36963 ft | 446 kts | 133° |
| 2026-05-04 18:02 | 49.73512 | 8.63978 | 36964 ft | 447 kts | 133° |
| 2026-05-04 18:02 | 49.69654 | 8.71446 | 36961 ft | 447 kts | 133° |
| 2026-05-04 18:03 | 49.65764 | 8.78933 | 36966 ft | 447 kts | 133° |
| 2026-05-04 18:03 | 49.61866 | 8.86412 | 36968 ft | 447 kts | 133° |
| 2026-05-04 18:04 | 49.57963 | 8.93883 | 36969 ft | 447 kts | 133° |
| 2026-05-04 18:05 | 49.52095 | 9.05072 | 36971 ft | 448 kts | 133° |
| 2026-05-04 18:05 | 49.48179 | 9.12520 | 36973 ft | 448 kts | 133° |
| 2026-05-04 18:06 | 49.43414 | 9.23085 | 36980 ft | 451 kts | 127° |
| 2026-05-04 18:06 | 49.40005 | 9.31103 | 36982 ft | 451 kts | 127° |
| 2026-05-04 18:07 | 49.36564 | 9.39147 | 36981 ft | 450 kts | 127° |
| 2026-05-04 18:07 | 49.33116 | 9.47166 | 36972 ft | 450 kts | 127° |
| 2026-05-04 18:08 | 49.29664 | 9.55189 | 36974 ft | 451 kts | 127° |
| 2026-05-04 18:08 | 49.26215 | 9.63201 | 36969 ft | 451 kts | 127° |
| 2026-05-04 18:09 | 49.19284 | 9.79218 | 36963 ft | 451 kts | 128° |
| 2026-05-04 18:10 | 49.15811 | 9.87204 | 36957 ft | 451 kts | 128° |
| 2026-05-04 18:10 | 49.12328 | 9.95178 | 36960 ft | 451 kts | 128° |
| 2026-05-04 18:11 | 49.08839 | 10.03150 | 36955 ft | 452 kts | 127° |
| 2026-05-04 18:11 | 49.05077 | 10.10770 | 36966 ft | 446 kts | 139° |
| 2026-05-04 18:12 | 49.00711 | 10.17417 | 36971 ft | 446 kts | 139° |
| 2026-05-04 18:12 | 48.96309 | 10.24089 | 36971 ft | 447 kts | 139° |
| 2026-05-04 18:13 | 48.91900 | 10.30766 | 36984 ft | 447 kts | 139° |
| 2026-05-04 18:14 | 48.85267 | 10.40774 | 36982 ft | 448 kts | 139° |
| 2026-05-04 18:14 | 48.80843 | 10.47438 | 36980 ft | 448 kts | 139° |
| 2026-05-04 18:15 | 48.71969 | 10.60724 | 36974 ft | 448 kts | 139° |
| 2026-05-04 18:16 | 48.67560 | 10.67296 | 36964 ft | 448 kts | 139° |
| 2026-05-04 18:16 | 48.63119 | 10.73899 | 36952 ft | 448 kts | 139° |
| 2026-05-04 18:17 | 48.56975 | 10.84555 | 36946 ft | 453 kts | 126° |
| 2026-05-04 18:18 | 48.51780 | 10.96490 | 36946 ft | 454 kts | 126° |
| 2026-05-04 18:18 | 48.48293 | 11.04428 | 36952 ft | 454 kts | 126° |
| 2026-05-04 18:19 | 48.43069 | 11.16325 | 36952 ft | 454 kts | 126° |
| 2026-05-04 18:19 | 48.39580 | 11.24245 | 36953 ft | 454 kts | 126° |
| 2026-05-04 18:20 | 48.36074 | 11.32154 | 36955 ft | 454 kts | 127° |
| 2026-05-04 18:20 | 48.32553 | 11.40053 | 36952 ft | 454 kts | 127° |
| 2026-05-04 18:21 | 48.29037 | 11.47949 | 36954 ft | 454 kts | 127° |
| 2026-05-04 18:21 | 48.25517 | 11.55835 | 36951 ft | 454 kts | 127° |
| 2026-05-04 18:22 | 48.22025 | 11.63641 | 36946 ft | 454 kts | 127° |
| 2026-05-04 18:22 | 48.18502 | 11.71486 | 36943 ft | 453 kts | 127° |
| 2026-05-04 18:23 | 48.14969 | 11.79319 | 36942 ft | 454 kts | 127° |
| 2026-05-04 18:23 | 48.11434 | 11.87149 | 36942 ft | 454 kts | 127° |
| 2026-05-04 18:24 | 48.07892 | 11.94969 | 36941 ft | 454 kts | 127° |
| 2026-05-04 18:24 | 48.04346 | 12.02760 | 36936 ft | 454 kts | 127° |
| 2026-05-04 18:25 | 48.00793 | 12.10555 | 36927 ft | 454 kts | 127° |
| 2026-05-04 18:25 | 47.97236 | 12.18342 | 36928 ft | 454 kts | 127° |
| 2026-05-04 18:26 | 47.93669 | 12.26123 | 36926 ft | 454 kts | 127° |
| 2026-05-04 18:26 | 47.90102 | 12.33891 | 36928 ft | 454 kts | 127° |
| 2026-05-04 18:27 | 47.86521 | 12.41665 | 36927 ft | 455 kts | 127° |
| 2026-05-04 18:27 | 47.82956 | 12.49381 | 36930 ft | 455 kts | 127° |
| 2026-05-04 18:28 | 47.79363 | 12.57129 | 36935 ft | 455 kts | 127° |
| 2026-05-04 18:28 | 47.75755 | 12.64866 | 36940 ft | 455 kts | 127° |
| 2026-05-04 18:29 | 47.72153 | 12.72590 | 36926 ft | 455 kts | 127° |
| 2026-05-04 18:29 | 47.68499 | 12.80252 | 36905 ft | 453 kts | 132° |
| 2026-05-04 18:30 | 47.61921 | 12.90218 | 36920 ft | 451 kts | 137° |
| 2026-05-04 18:31 | 47.57477 | 12.96790 | 36924 ft | 451 kts | 137° |
| 2026-05-04 18:31 | 47.53029 | 13.03354 | 36934 ft | 452 kts | 137° |
| 2026-05-04 18:32 | 47.48571 | 13.09910 | 36953 ft | 452 kts | 137° |
| 2026-05-04 18:32 | 47.44111 | 13.16445 | 36963 ft | 451 kts | 137° |
| 2026-05-04 18:33 | 47.39645 | 13.22972 | 36961 ft | 452 kts | 137° |
| 2026-05-04 18:33 | 47.35201 | 13.29447 | 36969 ft | 452 kts | 137° |
| 2026-05-04 18:34 | 47.31071 | 13.36456 | 36986 ft | 455 kts | 127° |
| 2026-05-04 18:34 | 47.27375 | 13.44019 | 36989 ft | 455 kts | 128° |
| 2026-05-04 18:35 | 47.23654 | 13.51567 | 36993 ft | 455 kts | 128° |
| 2026-05-04 18:35 | 47.19918 | 13.59103 | 37002 ft | 456 kts | 128° |
| 2026-05-04 18:36 | 47.16172 | 13.66638 | 37004 ft | 456 kts | 128° |
| 2026-05-04 18:36 | 47.12453 | 13.74114 | 37004 ft | 456 kts | 128° |
| 2026-05-04 18:37 | 47.08708 | 13.81630 | 37010 ft | 456 kts | 128° |
| 2026-05-04 18:37 | 47.04953 | 13.89140 | 37014 ft | 457 kts | 128° |
| 2026-05-04 18:38 | 47.01190 | 13.96653 | 37016 ft | 457 kts | 128° |
| 2026-05-04 18:38 | 46.97423 | 14.04136 | 37015 ft | 457 kts | 128° |
| 2026-05-04 18:39 | 46.93648 | 14.11631 | 37014 ft | 457 kts | 128° |
| 2026-05-04 18:39 | 46.89872 | 14.19125 | 37013 ft | 457 kts | 128° |
| 2026-05-04 18:40 | 46.86112 | 14.26542 | 37015 ft | 457 kts | 128° |
| 2026-05-04 18:40 | 46.82318 | 14.33994 | 37019 ft | 457 kts | 128° |
| 2026-05-04 18:41 | 46.78522 | 14.41444 | 37019 ft | 457 kts | 128° |
| 2026-05-04 18:41 | 46.74721 | 14.48886 | 37016 ft | 457 kts | 128° |
| 2026-05-04 18:42 | 46.70915 | 14.56316 | 37019 ft | 457 kts | 128° |
| 2026-05-04 18:42 | 46.67105 | 14.63737 | 37015 ft | 458 kts | 128° |
| 2026-05-04 18:43 | 46.63287 | 14.71160 | 37019 ft | 458 kts | 128° |
| 2026-05-04 18:43 | 46.59465 | 14.78582 | 37025 ft | 458 kts | 128° |
| 2026-05-04 18:44 | 46.55638 | 14.85973 | 37026 ft | 458 kts | 128° |
| 2026-05-04 18:44 | 46.51801 | 14.93362 | 37026 ft | 458 kts | 128° |
| 2026-05-04 18:45 | 46.47964 | 15.00727 | 37026 ft | 458 kts | 128° |
| 2026-05-04 18:45 | 46.44139 | 15.08051 | 37018 ft | 458 kts | 128° |
| 2026-05-04 18:46 | 46.40285 | 15.15403 | 37015 ft | 458 kts | 128° |
| 2026-05-04 18:46 | 46.36439 | 15.22773 | 37011 ft | 459 kts | 127° |
| 2026-05-04 18:47 | 46.32748 | 15.30336 | 37002 ft | 460 kts | 126° |
| 2026-05-04 18:47 | 46.29131 | 15.37987 | 37007 ft | 461 kts | 126° |
| 2026-05-04 18:48 | 46.25482 | 15.45608 | 37011 ft | 461 kts | 126° |
| 2026-05-04 18:48 | 46.21793 | 15.53172 | 37013 ft | 460 kts | 126° |
| 2026-05-04 18:49 | 46.18090 | 15.60723 | 37025 ft | 460 kts | 126° |
| 2026-05-04 18:49 | 46.14441 | 15.68322 | 37023 ft | 460 kts | 124° |
| 2026-05-04 18:50 | 46.10950 | 15.75989 | 37022 ft | 460 kts | 123° |
| 2026-05-04 18:50 | 46.07455 | 15.83709 | 37017 ft | 460 kts | 124° |
| 2026-05-04 18:51 | 46.03923 | 15.91397 | 37011 ft | 460 kts | 124° |
| 2026-05-04 18:51 | 46.00935 | 15.97820 | 37011 ft | 461 kts | 124° |
| 2026-05-04 18:52 | 45.97389 | 16.05419 | 37011 ft | 461 kts | 124° |
| 2026-05-04 18:52 | 45.93819 | 16.13072 | 37015 ft | 461 kts | 124° |
| 2026-05-04 18:53 | 45.90245 | 16.20724 | 37019 ft | 461 kts | 124° |
| 2026-05-04 18:53 | 45.86656 | 16.28376 | 37019 ft | 461 kts | 124° |
| 2026-05-04 18:54 | 45.83071 | 16.36022 | 37017 ft | 462 kts | 124° |
| 2026-05-04 18:54 | 45.79499 | 16.43596 | 37014 ft | 462 kts | 124° |
| 2026-05-04 18:55 | 45.75876 | 16.51265 | 37011 ft | 462 kts | 124° |
| 2026-05-04 18:55 | 45.70486 | 16.62626 | 37018 ft | 462 kts | 124° |
| 2026-05-04 18:56 | 45.66866 | 16.70231 | 37022 ft | 462 kts | 124° |
| 2026-05-04 18:56 | 45.63242 | 16.77821 | 37022 ft | 462 kts | 124° |
| 2026-05-04 18:57 | 45.59616 | 16.85410 | 37028 ft | 462 kts | 124° |
| 2026-05-04 18:57 | 45.55981 | 16.93002 | 37033 ft | 462 kts | 124° |
| 2026-05-04 18:58 | 45.52587 | 17.00803 | 37034 ft | 463 kts | 119° |
| 2026-05-04 18:58 | 45.49524 | 17.08879 | 37035 ft | 463 kts | 118° |
| 2026-05-04 18:59 | 45.46469 | 17.16893 | 37045 ft | 463 kts | 119° |
| 2026-05-04 18:59 | 45.43281 | 17.24874 | 37048 ft | 463 kts | 120° |
| 2026-05-04 19:00 | 45.40053 | 17.32804 | 37044 ft | 463 kts | 120° |
| 2026-05-04 19:00 | 45.36840 | 17.40725 | 37054 ft | 463 kts | 119° |
| 2026-05-04 19:01 | 45.33635 | 17.48666 | 37055 ft | 463 kts | 119° |
| 2026-05-04 19:01 | 45.30423 | 17.56609 | 37060 ft | 463 kts | 119° |
| 2026-05-04 19:02 | 45.27203 | 17.64525 | 37066 ft | 463 kts | 120° |
| 2026-05-04 19:02 | 45.23996 | 17.72381 | 37053 ft | 463 kts | 119° |
| 2026-05-04 19:03 | 45.20767 | 17.80282 | 37056 ft | 463 kts | 119° |
| 2026-05-04 19:03 | 45.17536 | 17.88166 | 37054 ft | 463 kts | 120° |
| 2026-05-04 19:04 | 45.14293 | 17.96051 | 37055 ft | 463 kts | 120° |
| 2026-05-04 19:04 | 45.11048 | 18.03925 | 37051 ft | 463 kts | 120° |
| 2026-05-04 19:05 | 45.07784 | 18.11796 | 37051 ft | 464 kts | 120° |
| 2026-05-04 19:05 | 45.04522 | 18.19663 | 37057 ft | 464 kts | 120° |
| 2026-05-04 19:06 | 45.01253 | 18.27545 | 37065 ft | 464 kts | 120° |
| 2026-05-04 19:06 | 44.97979 | 18.35414 | 37066 ft | 464 kts | 120° |
| 2026-05-04 19:07 | 44.94690 | 18.43260 | 37067 ft | 464 kts | 120° |
| 2026-05-04 19:07 | 44.91406 | 18.51059 | 37067 ft | 465 kts | 120° |
| 2026-05-04 19:08 | 44.88114 | 18.58899 | 37068 ft | 465 kts | 120° |
| 2026-05-04 19:08 | 44.84813 | 18.66747 | 37073 ft | 465 kts | 120° |
| 2026-05-04 19:09 | 44.81501 | 18.74585 | 37074 ft | 465 kts | 120° |
| 2026-05-04 19:09 | 44.78183 | 18.82412 | 37080 ft | 465 kts | 120° |
| 2026-05-04 19:10 | 44.74861 | 18.90210 | 37082 ft | 464 kts | 120° |
| 2026-05-04 19:10 | 44.71542 | 18.98004 | 37081 ft | 464 kts | 120° |
| 2026-05-04 19:11 | 44.68218 | 19.05789 | 37077 ft | 464 kts | 120° |
| 2026-05-04 19:11 | 44.64885 | 19.13561 | 37081 ft | 464 kts | 120° |
| 2026-05-04 19:12 | 44.59889 | 19.25130 | 37081 ft | 464 kts | 120° |
| 2026-05-04 19:13 | 44.56548 | 19.32872 | 37083 ft | 464 kts | 120° |
| 2026-05-04 19:13 | 44.53202 | 19.40619 | 37087 ft | 464 kts | 120° |
| 2026-05-04 19:14 | 44.49852 | 19.48340 | 37090 ft | 464 kts | 120° |
| 2026-05-04 19:14 | 44.46499 | 19.56058 | 37093 ft | 463 kts | 120° |
| 2026-05-04 19:15 | 44.43144 | 19.63755 | 37094 ft | 463 kts | 120° |
| 2026-05-04 19:15 | 44.39773 | 19.71437 | 37092 ft | 463 kts | 120° |
| 2026-05-04 19:16 | 44.36407 | 19.79114 | 37094 ft | 463 kts | 120° |
| 2026-05-04 19:16 | 44.33040 | 19.86786 | 37094 ft | 463 kts | 120° |
| 2026-05-04 19:17 | 44.29665 | 19.94445 | 37094 ft | 463 kts | 120° |
| 2026-05-04 19:17 | 44.26271 | 20.02101 | 37095 ft | 463 kts | 120° |
| 2026-05-04 19:18 | 44.22879 | 20.09744 | 37099 ft | 463 kts | 120° |
| 2026-05-04 19:18 | 44.19513 | 20.17327 | 37100 ft | 463 kts | 120° |
| 2026-05-04 19:19 | 44.16114 | 20.24949 | 37099 ft | 463 kts | 120° |
| 2026-05-04 19:19 | 44.12712 | 20.32553 | 37100 ft | 463 kts | 120° |
| 2026-05-04 19:20 | 44.09303 | 20.40163 | 37109 ft | 463 kts | 120° |
| 2026-05-04 19:20 | 44.05892 | 20.47762 | 37116 ft | 463 kts | 120° |
| 2026-05-04 19:21 | 44.02484 | 20.55358 | 37125 ft | 463 kts | 120° |
| 2026-05-04 19:21 | 43.99063 | 20.62945 | 37127 ft | 463 kts | 120° |
| 2026-05-04 19:22 | 43.95631 | 20.70504 | 37124 ft | 463 kts | 120° |
| 2026-05-04 19:22 | 43.92190 | 20.78059 | 37121 ft | 463 kts | 120° |
| 2026-05-04 19:23 | 43.88747 | 20.85626 | 37121 ft | 464 kts | 120° |
| 2026-05-04 19:23 | 43.85299 | 20.93195 | 37116 ft | 464 kts | 120° |
| 2026-05-04 19:24 | 43.81837 | 21.00756 | 37112 ft | 465 kts | 120° |
| 2026-05-04 19:24 | 43.78388 | 21.08250 | 36630 ft | 464 kts | 120° |
| 2026-05-04 19:24 | 43.76631 | 21.12071 | 35918 ft | 465 kts | 120° |
| 2026-05-04 19:25 | 43.74895 | 21.15849 | 35223 ft | 465 kts | 120° |
| 2026-05-04 19:25 | 43.73159 | 21.19627 | 34536 ft | 466 kts | 120° |
| 2026-05-04 19:25 | 43.71445 | 21.23355 | 33825 ft | 466 kts | 120° |
| 2026-05-04 19:25 | 43.69703 | 21.27130 | 33024 ft | 466 kts | 120° |
| 2026-05-04 19:26 | 43.67956 | 21.30907 | 32206 ft | 467 kts | 120° |
| 2026-05-04 19:26 | 43.66201 | 21.34695 | 31378 ft | 468 kts | 120° |
| 2026-05-04 19:26 | 43.64443 | 21.38485 | 30540 ft | 469 kts | 120° |
| 2026-05-04 19:26 | 43.62681 | 21.42279 | 29620 ft | 471 kts | 120° |
| 2026-05-04 19:27 | 43.60910 | 21.46088 | 28713 ft | 470 kts | 120° |
| 2026-05-04 19:27 | 43.59157 | 21.49858 | 28043 ft | 464 kts | 120° |
| 2026-05-04 19:27 | 43.57419 | 21.53581 | 27348 ft | 459 kts | 120° |
| 2026-05-04 19:27 | 43.55696 | 21.57262 | 26690 ft | 454 kts | 120° |
| 2026-05-04 19:28 | 43.53993 | 21.60898 | 26061 ft | 449 kts | 120° |
| 2026-05-04 19:28 | 43.52307 | 21.64500 | 25447 ft | 445 kts | 120° |
| 2026-05-04 19:28 | 43.50633 | 21.68069 | 24949 ft | 442 kts | 121° |
| 2026-05-04 19:28 | 43.48965 | 21.71620 | 24700 ft | 441 kts | 121° |
| 2026-05-04 19:29 | 43.47301 | 21.75164 | 24467 ft | 440 kts | 121° |
| 2026-05-04 19:29 | 43.45646 | 21.78685 | 24243 ft | 438 kts | 121° |
| 2026-05-04 19:29 | 43.43991 | 21.82204 | 24010 ft | 436 kts | 121° |
| 2026-05-04 19:29 | 43.42345 | 21.85696 | 23779 ft | 434 kts | 121° |
| 2026-05-04 19:30 | 43.40703 | 21.89176 | 23528 ft | 433 kts | 121° |
| 2026-05-04 19:30 | 43.39069 | 21.92636 | 23244 ft | 431 kts | 121° |
| 2026-05-04 19:30 | 43.37443 | 21.96079 | 22976 ft | 429 kts | 122° |
| 2026-05-04 19:30 | 43.35818 | 21.99517 | 22705 ft | 427 kts | 122° |
| 2026-05-04 19:31 | 43.34204 | 22.02926 | 22436 ft | 425 kts | 122° |
| 2026-05-04 19:31 | 43.32596 | 22.06317 | 22177 ft | 422 kts | 122° |
| 2026-05-04 19:31 | 43.31013 | 22.09651 | 21911 ft | 421 kts | 122° |
| 2026-05-04 19:31 | 43.29414 | 22.13010 | 21649 ft | 419 kts | 122° |
| 2026-05-04 19:32 | 43.27817 | 22.16355 | 21388 ft | 417 kts | 122° |
| 2026-05-04 19:32 | 43.26231 | 22.19670 | 21129 ft | 415 kts | 122° |
| 2026-05-04 19:32 | 43.24648 | 22.22978 | 20885 ft | 413 kts | 122° |
| 2026-05-04 19:32 | 43.23076 | 22.26266 | 20632 ft | 412 kts | 122° |
| 2026-05-04 19:33 | 43.21514 | 22.29536 | 20294 ft | 407 kts | 121° |
| 2026-05-04 19:33 | 43.19970 | 22.32767 | 19749 ft | 403 kts | 121° |
| 2026-05-04 19:33 | 43.18439 | 22.35967 | 19235 ft | 400 kts | 121° |
| 2026-05-04 19:33 | 43.16918 | 22.39133 | 18723 ft | 396 kts | 121° |
| 2026-05-04 19:34 | 43.15410 | 22.42265 | 18196 ft | 392 kts | 121° |
| 2026-05-04 19:34 | 43.13914 | 22.45372 | 17630 ft | 389 kts | 121° |
| 2026-05-04 19:34 | 43.12432 | 22.48446 | 17105 ft | 385 kts | 121° |
| 2026-05-04 19:34 | 43.10970 | 22.51493 | 16587 ft | 381 kts | 121° |
| 2026-05-04 19:35 | 43.09514 | 22.54507 | 16197 ft | 378 kts | 121° |
| 2026-05-04 19:35 | 43.08062 | 22.57509 | 16110 ft | 377 kts | 121° |
| 2026-05-04 19:35 | 43.06631 | 22.60469 | 16130 ft | 378 kts | 121° |
| 2026-05-04 19:35 | 43.05180 | 22.63466 | 16129 ft | 378 kts | 121° |
| 2026-05-04 19:36 | 43.03725 | 22.66464 | 16126 ft | 378 kts | 121° |
| 2026-05-04 19:36 | 43.02271 | 22.69462 | 16132 ft | 378 kts | 121° |
| 2026-05-04 19:36 | 43.00817 | 22.72456 | 16130 ft | 378 kts | 121° |
| 2026-05-04 19:36 | 42.99363 | 22.75445 | 16127 ft | 378 kts | 121° |
| 2026-05-04 19:37 | 42.97907 | 22.78435 | 16130 ft | 378 kts | 122° |
| 2026-05-04 19:37 | 42.96320 | 22.81289 | 15926 ft | 376 kts | 128° |
| 2026-05-04 19:37 | 42.94630 | 22.83995 | 15416 ft | 373 kts | 128° |
| 2026-05-04 19:37 | 42.92946 | 22.86673 | 14912 ft | 370 kts | 128° |
| 2026-05-04 19:38 | 42.91276 | 22.89319 | 14436 ft | 367 kts | 128° |
| 2026-05-04 19:38 | 42.89616 | 22.91951 | 14161 ft | 365 kts | 128° |
| 2026-05-04 19:38 | 42.88521 | 22.93691 | 14107 ft | 364 kts | 128° |
| 2026-05-04 19:38 | 42.86867 | 22.96316 | 14131 ft | 365 kts | 128° |
| 2026-05-04 19:39 | 42.85215 | 22.98941 | 14122 ft | 365 kts | 128° |
| 2026-05-04 19:39 | 42.83560 | 23.01567 | 14124 ft | 365 kts | 128° |
| 2026-05-04 19:39 | 42.81906 | 23.04189 | 14128 ft | 365 kts | 128° |
| 2026-05-04 19:39 | 42.80251 | 23.06810 | 14117 ft | 365 kts | 128° |
| 2026-05-04 19:40 | 42.78598 | 23.09428 | 14128 ft | 365 kts | 128° |
| 2026-05-04 19:40 | 42.76938 | 23.12052 | 14131 ft | 365 kts | 128° |
| 2026-05-04 19:40 | 42.75276 | 23.14676 | 14116 ft | 365 kts | 128° |
| 2026-05-04 19:40 | 42.73619 | 23.17293 | 14113 ft | 366 kts | 128° |
| 2026-05-04 19:41 | 42.71958 | 23.19915 | 14115 ft | 365 kts | 128° |
| 2026-05-04 19:41 | 42.70304 | 23.22523 | 13914 ft | 362 kts | 128° |
| 2026-05-04 19:41 | 42.68687 | 23.25062 | 13747 ft | 349 kts | 128° |
| 2026-05-04 19:41 | 42.67123 | 23.27508 | 13608 ft | 336 kts | 127° |
| 2026-05-04 19:42 | 42.65620 | 23.29862 | 13473 ft | 324 kts | 127° |
| 2026-05-04 19:42 | 42.64166 | 23.32145 | 13342 ft | 314 kts | 127° |
| 2026-05-04 19:42 | 42.62785 | 23.34380 | 13208 ft | 304 kts | 126° |
| 2026-05-04 19:42 | 42.61434 | 23.36574 | 12839 ft | 303 kts | 126° |
| 2026-05-04 19:43 | 42.60080 | 23.38768 | 12453 ft | 303 kts | 126° |
| 2026-05-04 19:43 | 42.58740 | 23.40930 | 12075 ft | 303 kts | 126° |
| 2026-05-04 19:43 | 42.57378 | 23.43117 | 11700 ft | 303 kts | 126° |
| 2026-05-04 19:43 | 42.56018 | 23.45288 | 11324 ft | 301 kts | 126° |
| 2026-05-04 19:44 | 42.54656 | 23.47439 | 10954 ft | 300 kts | 126° |
| 2026-05-04 19:44 | 42.53294 | 23.49584 | 10587 ft | 301 kts | 126° |
| 2026-05-04 19:44 | 42.51935 | 23.51742 | 10221 ft | 299 kts | 122° |
| 2026-05-04 19:44 | 42.51013 | 23.54167 | 10013 ft | 281 kts | 101° |
| 2026-05-04 19:45 | 42.50788 | 23.56719 | 9922 ft | 268 kts | 82° |
| 2026-05-04 19:45 | 42.51125 | 23.59168 | 9495 ft | 264 kts | 72° |
| 2026-05-04 19:45 | 42.51569 | 23.61584 | 9100 ft | 264 kts | 72° |
| 2026-05-04 19:45 | 42.52010 | 23.63991 | 8691 ft | 264 kts | 73° |
| 2026-05-04 19:46 | 42.52445 | 23.66373 | 8492 ft | 255 kts | 73° |
| 2026-05-04 19:46 | 42.52859 | 23.68658 | 8362 ft | 244 kts | 73° |
| 2026-05-04 19:46 | 42.53260 | 23.70853 | 8213 ft | 236 kts | 73° |
| 2026-05-04 19:46 | 42.53650 | 23.72991 | 8068 ft | 233 kts | 73° |
| 2026-05-04 19:47 | 42.54041 | 23.75125 | 8015 ft | 234 kts | 72° |
| 2026-05-04 19:47 | 42.54429 | 23.77255 | 8015 ft | 228 kts | 72° |
| 2026-05-04 19:47 | 42.54800 | 23.79310 | 8021 ft | 223 kts | 72° |
| 2026-05-04 19:47 | 42.55167 | 23.81349 | 8012 ft | 222 kts | 72° |
| 2026-05-04 19:48 | 42.55605 | 23.83342 | 8000 ft | 219 kts | 60° |
| 2026-05-04 19:48 | 42.56544 | 23.84899 | 7694 ft | 213 kts | 34° |
| 2026-05-04 19:48 | 42.57881 | 23.85653 | 7361 ft | 213 kts | 8° |
| 2026-05-04 19:48 | 42.59354 | 23.85467 | 7037 ft | 217 kts | 341° |
| 2026-05-04 19:49 | 42.60640 | 23.84389 | 6716 ft | 220 kts | 324° |
| 2026-05-04 19:49 | 42.61846 | 23.83096 | 6401 ft | 221 kts | 324° |
| 2026-05-04 19:49 | 42.63050 | 23.81809 | 6086 ft | 219 kts | 323° |
| 2026-05-04 19:49 | 42.64238 | 23.80540 | 6020 ft | 218 kts | 324° |
| 2026-05-04 19:50 | 42.65441 | 23.79259 | 6015 ft | 220 kts | 324° |
| 2026-05-04 19:50 | 42.66612 | 23.77915 | 6015 ft | 222 kts | 313° |
| 2026-05-04 19:50 | 42.67398 | 23.76128 | 6012 ft | 218 kts | 290° |
| 2026-05-04 19:50 | 42.67641 | 23.74141 | 5989 ft | 211 kts | 278° |
| 2026-05-04 19:51 | 42.67764 | 23.72169 | 5795 ft | 209 kts | 277° |
| 2026-05-04 19:51 | 42.67889 | 23.70203 | 5536 ft | 210 kts | 277° |
| 2026-05-04 19:51 | 42.68014 | 23.68214 | 5261 ft | 211 kts | 277° |
| 2026-05-04 19:51 | 42.68139 | 23.66219 | 4980 ft | 212 kts | 277° |
| 2026-05-04 19:52 | 42.68264 | 23.64215 | 4697 ft | 214 kts | 276° |
| 2026-05-04 19:52 | 42.68390 | 23.62199 | 4404 ft | 215 kts | 276° |
| 2026-05-04 19:52 | 42.68516 | 23.60172 | 4116 ft | 215 kts | 276° |
| 2026-05-04 19:52 | 42.68642 | 23.58138 | 3833 ft | 216 kts | 275° |
| 2026-05-04 19:53 | 42.68766 | 23.56123 | 3563 ft | 209 kts | 275° |
| 2026-05-04 19:53 | 42.68881 | 23.54253 | 3267 ft | 193 kts | 274° |
| 2026-05-04 19:53 | 42.68991 | 23.52482 | 3014 ft | 178 kts | 274° |
| 2026-05-04 19:53 | 42.69088 | 23.50899 | 2772 ft | 159 kts | 273° |
| 2026-05-04 19:54 | 42.69175 | 23.49477 | 2558 ft | 148 kts | 273° |
| 2026-05-04 19:54 | 42.69259 | 23.48109 | 2374 ft | 143 kts | 273° |
| 2026-05-04 19:54 | 42.69340 | 23.46774 | 2195 ft | 140 kts | 273° |
| 2026-05-04 19:54 | 42.69422 | 23.45458 | 2004 ft | 139 kts | 273° |
| 2026-05-04 19:55 | 42.69502 | 23.44144 | 1835 ft | 139 kts | 272° |
| 2026-05-04 19:55 | 42.69579 | 23.42868 | 1751 ft | 124 kts | 274° |
| 2026-05-04 19:55 | 42.69636 | 23.41947 | 1747 ft | 73 kts | 274° |
| 2026-05-04 19:55 | 42.69671 | 23.41388 | 1749 ft | 39 kts | 275° |
| 2026-05-04 19:56 | 42.69685 | 23.41092 | 1750 ft | 18 kts | 272° |
| 2026-05-04 19:56 | 42.69668 | 23.40915 | 1744 ft | 20 kts | 252° |
| 2026-05-04 19:56 | 42.69623 | 23.40762 | 1745 ft | 10 kts | 245° |
| 2026-05-04 19:56 | 42.69601 | 23.40701 | 1739 ft | 4 kts | 245° |
| 2026-05-04 19:57 | 42.69583 | 23.40641 | 1749 ft | 12 kts | 248° |
| 2026-05-04 19:57 | 42.69548 | 23.40541 | 1745 ft | 10 kts | 241° |
| 2026-05-04 19:57 | 42.69504 | 23.40488 | 1743 ft | 8 kts | 202° |
| 2026-05-04 19:57 | 42.69448 | 23.40464 | 1749 ft | 9 kts | 197° |
| 2026-05-04 19:58 | 42.69387 | 23.40440 | 1741 ft | 9 kts | 196° |
| 2026-05-04 19:58 | 42.69320 | 23.40413 | 1747 ft | 11 kts | 197° |
| 2026-05-04 19:58 | 42.69242 | 23.40380 | 1745 ft | 12 kts | 196° |
| 2026-05-04 19:58 | 42.69176 | 23.40355 | 1744 ft | 7 kts | 197° |
| 2026-05-04 19:59 | 42.69155 | 23.40310 | 1747 ft | 5 kts | 270° |
| 2026-05-04 19:59 | 42.69164 | 23.40269 | 1744 ft | 4 kts | 288° |
| 2026-05-04 19:59 | 42.69164 | 23.40239 | 1746 ft | 2 kts | 250° |
| 2026-05-04 19:59 | 42.69151 | 23.40228 | 1746 ft | 3 kts | 206° |
| 2026-05-04 20:00 | 42.69130 | 23.40218 | 1743 ft | 4 kts | 198° |
| 2026-05-04 20:00 | 42.69100 | 23.40206 | 1746 ft | 0 kts | 197° |